createdAt,value
2023-01-10T00:00:45.084Z,8.20
2023-01-10T00:03:33.831Z,8.20
2023-01-10T00:06:22.556Z,8.30
2023-01-10T00:09:11.794Z,8.20
2023-01-10T00:12:17.809Z,8.30
2023-01-10T00:15:07.698Z,8.30
2023-01-10T00:17:57.901Z,8.30
2023-01-10T00:20:46.979Z,8.30
2023-01-10T00:23:36.852Z,8.20
2023-01-10T00:26:25.817Z,8.20
2023-01-10T00:29:16.156Z,8.20
2023-01-10T00:32:04.977Z,8.20
2023-01-10T00:34:57.883Z,8.20
2023-01-10T00:37:46.621Z,8.10
2023-01-10T00:40:35.502Z,8.10
2023-01-10T00:43:42.176Z,8.10
2023-01-10T00:46:31.035Z,8.10
2023-01-10T00:49:19.977Z,8.10
2023-01-10T00:52:10.111Z,8.20
2023-01-10T00:54:58.752Z,8.20
2023-01-10T00:57:47.659Z,8.20
2023-01-10T01:00:36.379Z,8.10
2023-01-10T01:03:25.233Z,8.00
2023-01-10T01:06:13.932Z,8.10
2023-01-10T01:09:05.312Z,8.20
2023-01-10T01:11:54.000Z,8.20
2023-01-10T01:14:42.598Z,8.20
2023-01-10T01:17:31.296Z,8.20
2023-01-10T01:20:21.073Z,8.10
2023-01-10T01:23:09.986Z,8.10
2023-01-10T01:26:00.317Z,8.10
2023-01-10T01:28:49.069Z,8.10
2023-01-10T01:31:38.178Z,8.20
2023-01-10T01:34:27.052Z,8.20
2023-01-10T01:37:16.470Z,8.20
2023-01-10T01:40:06.128Z,8.20
2023-01-10T01:42:56.994Z,8.20
2023-01-10T01:45:48.726Z,8.10
2023-01-10T01:48:39.938Z,8.00
2023-01-10T01:51:32.031Z,8.10
2023-01-10T01:54:21.279Z,8.10
2023-01-10T01:57:14.568Z,8.20
2023-01-10T02:00:06.701Z,8.20
2023-01-10T02:03:03.328Z,8.30
2023-01-10T02:05:52.495Z,8.20
2023-01-10T02:08:50.713Z,8.20
2023-01-10T02:11:39.441Z,8.10
2023-01-10T02:14:28.248Z,8.20
2023-01-10T02:17:18.957Z,8.30
2023-01-10T02:20:10.351Z,8.20
2023-01-10T02:23:29.657Z,8.30
2023-01-10T02:26:47.105Z,8.30
2023-01-10T02:30:02.129Z,8.20
2023-01-10T02:33:05.025Z,8.20
2023-01-10T02:36:17.245Z,8.20
2023-01-10T02:39:13.108Z,8.20
2023-01-10T02:42:07.674Z,8.10
2023-01-10T02:45:01.573Z,8.20
2023-01-10T02:47:52.090Z,8.20
2023-01-10T02:50:58.201Z,8.20
2023-01-10T02:53:50.724Z,8.30
2023-01-10T02:57:16.406Z,8.20
2023-01-10T03:00:16.434Z,8.30
2023-01-10T03:03:16.608Z,8.20
2023-01-10T03:06:16.742Z,8.20
2023-01-10T03:09:15.175Z,8.20
2023-01-10T03:12:12.942Z,8.30
2023-01-10T03:15:03.610Z,8.30
2023-01-10T03:17:58.376Z,8.30
2023-01-10T03:20:50.742Z,8.20
2023-01-10T03:23:41.660Z,8.30
2023-01-10T03:26:37.089Z,8.20
2023-01-10T03:29:31.720Z,8.30
2023-01-10T03:32:25.145Z,8.30
2023-01-10T03:35:15.499Z,8.30
2023-01-10T03:38:12.061Z,8.20
2023-01-10T03:41:08.720Z,8.20
2023-01-10T03:44:22.898Z,8.30
2023-01-10T03:47:16.889Z,8.30
2023-01-10T03:50:09.813Z,8.30
2023-01-10T03:52:59.352Z,8.30
2023-01-10T03:55:50.174Z,8.30
2023-01-10T03:58:38.909Z,8.20
2023-01-10T04:01:27.914Z,8.20
2023-01-10T04:04:16.980Z,8.20
2023-01-10T04:07:05.807Z,8.20
2023-01-10T04:09:54.555Z,8.20
2023-01-10T04:12:44.736Z,8.20
2023-01-10T04:15:33.945Z,8.30
2023-01-10T04:18:22.718Z,8.30
2023-01-10T04:21:11.580Z,8.30
2023-01-10T04:24:00.283Z,8.40
2023-01-10T04:26:48.995Z,8.30
2023-01-10T04:29:39.356Z,8.20
2023-01-10T04:32:28.179Z,8.30
2023-01-10T04:35:17.283Z,8.30
2023-01-10T04:38:06.105Z,8.40
2023-01-10T04:40:55.852Z,8.40
2023-01-10T04:43:44.705Z,8.40
2023-01-10T04:46:35.093Z,8.40
2023-01-10T04:49:24.117Z,8.40
2023-01-10T04:52:13.137Z,8.40
2023-01-10T04:55:01.877Z,8.30
2023-01-10T04:57:50.697Z,8.40
2023-01-10T05:00:39.673Z,8.50
2023-01-10T05:03:30.071Z,8.40
2023-01-10T05:06:19.391Z,8.50
2023-01-10T05:09:08.264Z,8.40
2023-01-10T05:11:57.128Z,8.40
2023-01-10T05:14:46.152Z,8.40
2023-01-10T05:17:34.858Z,8.40
2023-01-10T05:20:25.046Z,8.30
2023-01-10T05:23:13.785Z,8.40
2023-01-10T05:26:07.447Z,8.40
2023-01-10T05:28:56.226Z,8.30
2023-01-10T05:31:45.268Z,8.20
2023-01-10T05:34:34.551Z,8.20
2023-01-10T05:37:24.906Z,8.30
2023-01-10T05:40:14.223Z,8.20
2023-01-10T05:43:03.271Z,8.20
2023-01-10T05:45:52.449Z,8.30
2023-01-10T05:48:41.375Z,8.20
2023-01-10T05:51:30.446Z,8.30
2023-01-10T05:54:21.149Z,8.20
2023-01-10T05:57:09.958Z,8.20
2023-01-10T05:59:58.771Z,8.20
2023-01-10T06:02:47.782Z,8.20
2023-01-10T06:05:36.828Z,8.20
2023-01-10T06:08:26.325Z,8.20
2023-01-10T06:11:16.540Z,8.20
2023-01-10T06:14:05.437Z,8.30
2023-01-10T06:16:54.326Z,8.30
2023-01-10T06:19:43.279Z,8.30
2023-01-10T06:22:32.204Z,8.30
2023-01-10T06:25:21.540Z,8.30
2023-01-10T06:28:20.612Z,8.30
2023-01-10T06:31:09.450Z,8.30
2023-01-10T06:33:58.265Z,8.30
2023-01-10T06:36:47.174Z,8.40
2023-01-10T06:39:36.116Z,8.30
2023-01-10T06:42:25.224Z,8.30
2023-01-10T06:45:15.348Z,8.30
2023-01-10T06:48:04.563Z,8.30
2023-01-10T06:50:53.443Z,8.30
2023-01-10T06:53:42.554Z,8.20
2023-01-10T06:56:31.567Z,8.20
2023-01-10T06:59:20.492Z,8.30
2023-01-10T07:02:13.032Z,8.20
2023-01-10T07:05:01.971Z,8.20
2023-01-10T07:07:50.817Z,8.10
2023-01-10T07:10:42.208Z,8.20
2023-01-10T07:13:31.110Z,8.20
2023-01-10T07:16:19.770Z,8.10
2023-01-10T07:19:09.882Z,8.10
2023-01-10T07:21:58.639Z,8.20
2023-01-10T07:24:47.326Z,8.20
2023-01-10T07:27:36.128Z,8.20
2023-01-10T07:30:26.120Z,8.20
2023-01-10T07:33:14.862Z,8.30
2023-01-10T07:36:05.290Z,8.30
2023-01-10T07:38:54.096Z,8.30
2023-01-10T07:41:42.739Z,8.20
2023-01-10T07:44:32.418Z,8.10
2023-01-10T07:47:27.145Z,8.00
2023-01-10T07:50:18.168Z,8.10
2023-01-10T07:53:16.981Z,8.20
2023-01-10T07:56:10.303Z,8.20
2023-01-10T07:58:59.071Z,8.30
2023-01-10T08:01:48.737Z,8.30
2023-01-10T08:04:38.270Z,8.30
2023-01-10T08:07:27.083Z,8.20
2023-01-10T08:10:18.296Z,8.30
2023-01-10T08:13:18.562Z,8.30
2023-01-10T08:16:09.137Z,8.30
2023-01-10T08:18:57.786Z,8.20
2023-01-10T08:21:46.472Z,8.20
2023-01-10T08:24:35.197Z,8.30
2023-01-10T08:27:25.276Z,8.30
2023-01-10T08:30:15.007Z,8.30
2023-01-10T08:33:04.681Z,8.20
2023-01-10T08:35:53.501Z,8.30
2023-01-10T08:38:42.129Z,8.20
2023-01-10T08:41:31.433Z,8.20
2023-01-10T08:44:21.477Z,8.20
2023-01-10T08:47:10.069Z,8.10
2023-01-10T08:49:58.745Z,8.10
2023-01-10T08:52:47.523Z,8.10
2023-01-10T08:55:36.448Z,8.20
2023-01-10T08:58:25.072Z,8.10
2023-01-10T09:01:15.368Z,8.20
2023-01-10T09:04:03.957Z,8.30
2023-01-10T09:06:52.573Z,8.30
2023-01-10T09:09:41.380Z,8.30
2023-01-10T09:12:47.870Z,8.30
2023-01-10T09:15:38.516Z,8.40
2023-01-10T09:18:28.602Z,8.30
2023-01-10T09:21:17.256Z,8.30
2023-01-10T09:24:07.361Z,8.20
2023-01-10T09:26:56.012Z,8.20
2023-01-10T09:29:44.675Z,8.30
2023-01-10T09:32:33.378Z,8.30
2023-01-10T09:35:23.873Z,8.30
2023-01-10T09:38:16.170Z,8.30
2023-01-10T09:41:18.851Z,8.40
2023-01-10T09:44:21.704Z,8.30
2023-01-10T09:47:22.864Z,8.30
2023-01-10T09:50:22.995Z,8.20
2023-01-10T09:53:19.037Z,8.20
2023-01-10T09:56:09.873Z,8.20
2023-01-10T09:59:00.352Z,8.30
2023-01-10T10:01:50.218Z,8.40
2023-01-10T10:04:41.623Z,8.40
2023-01-10T10:07:31.030Z,8.50
2023-01-10T10:10:28.659Z,8.30
2023-01-10T10:13:27.850Z,8.40
2023-01-10T10:16:28.091Z,8.40
2023-01-10T10:19:28.212Z,8.50
2023-01-10T10:22:25.259Z,8.40
2023-01-10T10:25:31.441Z,8.50
2023-01-10T10:28:53.869Z,8.50
2023-01-10T10:32:05.415Z,8.50
2023-01-10T10:34:59.596Z,8.40
2023-01-10T10:37:51.923Z,8.50
2023-01-10T10:40:45.897Z,8.40
2023-01-10T10:43:37.188Z,8.30
2023-01-10T10:46:26.570Z,8.40
2023-01-10T10:49:19.755Z,8.40
2023-01-10T10:52:18.924Z,8.30
2023-01-10T10:55:13.801Z,8.40
2023-01-10T10:58:04.644Z,8.30
2023-01-10T11:00:54.712Z,8.30
2023-01-10T11:03:48.476Z,8.40
2023-01-10T11:06:38.681Z,8.40
2023-01-10T11:09:31.163Z,8.30
2023-01-10T11:12:22.359Z,8.30
2023-01-10T11:15:12.831Z,8.40
2023-01-10T11:18:07.059Z,8.40
2023-01-10T11:20:59.060Z,8.20
2023-01-10T11:23:53.541Z,8.30
2023-01-10T11:26:42.341Z,8.00
2023-01-10T11:29:39.558Z,8.00
2023-01-10T11:32:35.983Z,8.10
2023-01-10T11:35:28.323Z,8.20
2023-01-10T11:38:24.653Z,8.30
2023-01-10T11:41:27.343Z,8.20
2023-01-10T11:44:27.947Z,8.30
2023-01-10T11:47:21.020Z,8.30
2023-01-10T11:50:12.765Z,8.20
2023-01-10T11:53:02.021Z,8.30
2023-01-10T11:55:51.421Z,8.00
2023-01-10T11:58:41.521Z,8.10
2023-01-10T12:01:36.592Z,8.20
2023-01-10T12:04:27.330Z,8.20
2023-01-10T12:07:19.393Z,8.20
2023-01-10T12:10:21.172Z,8.30
2023-01-10T12:13:16.553Z,8.40
2023-01-10T12:16:19.838Z,8.50
2023-01-10T12:19:17.172Z,8.30
2023-01-10T12:22:08.949Z,8.50
2023-01-10T12:25:01.436Z,8.30
2023-01-10T12:27:50.525Z,8.50
2023-01-10T12:30:43.697Z,8.30
2023-01-10T12:33:36.104Z,8.40
2023-01-10T12:36:44.750Z,8.30
2023-01-10T12:39:35.887Z,8.20
2023-01-10T12:43:03.254Z,8.30
2023-01-10T12:45:56.097Z,8.40
2023-01-10T12:48:50.914Z,8.50
2023-01-10T12:51:40.726Z,8.40
2023-01-10T12:54:31.973Z,8.50
2023-01-10T12:57:30.039Z,8.50
2023-01-10T13:00:25.013Z,8.40
2023-01-10T13:03:16.539Z,8.40
2023-01-10T13:06:05.488Z,8.50
2023-01-10T13:08:55.429Z,8.40
2023-01-10T13:11:49.601Z,8.50
2023-01-10T13:14:45.246Z,8.50
2023-01-10T13:17:40.460Z,8.50
2023-01-10T13:20:37.154Z,8.50
2023-01-10T13:23:31.263Z,8.50
2023-01-10T13:26:20.903Z,8.50
2023-01-10T13:29:13.468Z,8.50
2023-01-10T13:32:03.972Z,8.50
2023-01-10T13:34:53.451Z,8.50
2023-01-10T13:37:45.760Z,8.50
2023-01-10T13:40:34.462Z,8.60
2023-01-10T13:43:34.582Z,8.60
2023-01-10T13:46:43.748Z,8.50
2023-01-10T13:49:51.585Z,8.50
2023-01-10T13:52:40.371Z,8.50
2023-01-10T13:55:36.674Z,8.40
2023-01-10T13:59:02.103Z,8.30
2023-01-10T14:02:16.199Z,8.40
2023-01-10T14:05:11.205Z,8.50
2023-01-10T14:08:00.675Z,8.50
2023-01-10T14:11:06.069Z,8.50
2023-01-10T14:13:57.607Z,8.40
2023-01-10T14:16:49.859Z,8.50
2023-01-10T14:19:39.491Z,8.50
2023-01-10T14:22:32.258Z,8.40
2023-01-10T14:25:22.772Z,8.50
2023-01-10T14:28:25.215Z,8.40
2023-01-10T14:31:21.082Z,8.40
2023-01-10T14:34:15.253Z,8.50
2023-01-10T14:37:10.978Z,8.50
2023-01-10T14:40:01.395Z,8.50
2023-01-10T14:42:51.267Z,8.40
2023-01-10T14:45:44.735Z,8.40
2023-01-10T14:48:34.930Z,8.40
2023-01-10T14:51:26.985Z,8.40
2023-01-10T14:54:17.815Z,8.40
2023-01-10T14:57:19.072Z,8.40
2023-01-10T15:00:10.644Z,8.30
2023-01-10T15:03:01.851Z,8.40
2023-01-10T15:05:52.847Z,8.30
2023-01-10T15:08:41.508Z,8.20
2023-01-10T15:11:33.044Z,8.10
2023-01-10T15:14:27.108Z,8.10
2023-01-10T15:17:20.550Z,8.10
2023-01-10T15:20:15.076Z,8.10
2023-01-10T15:23:03.936Z,8.10
2023-01-10T15:25:58.584Z,8.10
2023-01-10T15:29:00.918Z,8.10
2023-01-10T15:31:51.588Z,8.10
2023-01-10T15:34:42.388Z,8.10
2023-01-10T15:37:36.073Z,8.00
2023-01-10T15:40:29.668Z,8.00
2023-01-10T15:43:26.001Z,8.00
2023-01-10T15:46:20.345Z,7.90
2023-01-10T15:49:25.342Z,7.90
2023-01-10T15:52:22.921Z,8.00
2023-01-10T15:55:36.208Z,7.90
2023-01-10T15:58:29.371Z,7.90
2023-01-10T16:01:18.948Z,7.90
2023-01-10T16:04:15.187Z,7.90
2023-01-10T16:07:13.409Z,7.90
2023-01-10T16:10:06.082Z,7.80
2023-01-10T16:13:27.499Z,7.80
2023-01-10T16:16:20.053Z,7.70
2023-01-10T16:19:09.004Z,7.70
2023-01-10T16:22:00.176Z,7.70
2023-01-10T16:24:52.569Z,7.70
2023-01-10T16:27:41.410Z,7.60
2023-01-10T16:30:31.662Z,7.60
2023-01-10T16:33:23.552Z,7.60
2023-01-10T16:36:17.120Z,7.70
2023-01-10T16:39:09.462Z,7.70
2023-01-10T16:42:17.125Z,7.70
2023-01-10T16:45:06.475Z,7.50
2023-01-10T16:47:55.160Z,7.60
2023-01-10T16:50:44.530Z,7.50
2023-01-10T16:53:33.287Z,7.50
2023-01-10T16:56:23.934Z,7.50
2023-01-10T16:59:14.893Z,7.50
2023-01-10T17:02:03.776Z,7.50
2023-01-10T17:04:52.719Z,7.50
2023-01-10T17:07:41.523Z,7.50
2023-01-10T17:10:31.298Z,7.50
2023-01-10T17:13:25.767Z,7.50
2023-01-10T17:16:19.409Z,7.50
2023-01-10T17:19:09.779Z,7.40
2023-01-10T17:21:58.654Z,7.30
2023-01-10T17:24:47.508Z,7.20
2023-01-10T17:27:36.185Z,7.30
2023-01-10T17:30:24.763Z,7.30
2023-01-10T17:33:15.345Z,7.30
2023-01-10T17:36:05.011Z,7.30
2023-01-10T17:38:53.713Z,7.30
2023-01-10T17:41:42.392Z,7.20
2023-01-10T17:44:51.680Z,7.20
2023-01-10T17:47:40.513Z,7.20
2023-01-10T17:50:30.845Z,7.20
2023-01-10T17:53:19.724Z,7.20
2023-01-10T17:56:09.148Z,7.30
2023-01-10T17:58:57.942Z,7.20
2023-01-10T18:01:46.737Z,7.30
2023-01-10T18:04:35.425Z,7.30
2023-01-10T18:07:25.602Z,7.30
2023-01-10T18:10:14.585Z,7.30
2023-01-10T18:13:05.849Z,7.20
2023-01-10T18:15:55.227Z,7.30
2023-01-10T18:18:44.066Z,7.20
2023-01-10T18:21:32.891Z,7.20
2023-01-10T18:24:22.931Z,7.20
2023-01-10T18:27:11.573Z,7.20
2023-01-10T18:30:00.352Z,7.20
2023-01-10T18:32:49.408Z,7.20
2023-01-10T18:35:40.042Z,7.20
2023-01-10T18:38:32.780Z,7.20
2023-01-10T18:41:23.010Z,7.10
2023-01-10T18:44:11.758Z,7.10
2023-01-10T18:47:00.759Z,7.10
2023-01-10T18:49:49.531Z,7.10
2023-01-10T18:52:38.183Z,7.20
2023-01-10T18:55:26.952Z,7.30
2023-01-10T18:58:17.004Z,7.20
2023-01-10T19:01:09.716Z,7.10
2023-01-10T19:03:59.674Z,7.10
2023-01-10T19:06:48.566Z,7.10
2023-01-10T19:09:40.250Z,7.10
2023-01-10T19:12:34.024Z,7.10
2023-01-10T19:15:30.652Z,7.30
2023-01-10T19:18:20.413Z,7.10
2023-01-10T19:21:18.409Z,7.20
2023-01-10T19:24:12.532Z,7.10
2023-01-10T19:27:04.327Z,7.20
2023-01-10T19:29:55.637Z,7.10
2023-01-10T19:32:46.707Z,7.10
2023-01-10T19:35:37.959Z,7.10
2023-01-10T19:38:27.039Z,7.20
2023-01-10T19:41:16.491Z,7.20
2023-01-10T19:44:07.836Z,7.30
2023-01-10T19:46:57.053Z,7.30
2023-01-10T19:49:49.062Z,7.30
2023-01-10T19:52:38.241Z,7.20
2023-01-10T19:55:28.518Z,7.30
2023-01-10T19:58:17.435Z,7.20
2023-01-10T20:01:11.034Z,7.10
2023-01-10T20:04:01.635Z,7.00
2023-01-10T20:06:54.018Z,7.00
2023-01-10T20:09:42.966Z,7.10
2023-01-10T20:12:32.479Z,7.00
2023-01-10T20:15:21.643Z,7.00
2023-01-10T20:18:10.470Z,6.90
2023-01-10T20:20:59.377Z,6.90
2023-01-10T20:23:50.054Z,6.90
2023-01-10T20:26:39.294Z,6.80
2023-01-10T20:29:28.290Z,6.80
2023-01-10T20:32:17.386Z,6.80
2023-01-10T20:35:07.404Z,6.80
2023-01-10T20:37:56.461Z,6.80
2023-01-10T20:40:48.639Z,6.80
2023-01-10T20:43:38.258Z,6.80
2023-01-10T20:46:28.851Z,6.70
2023-01-10T20:49:18.572Z,6.50
2023-01-10T20:52:07.583Z,6.50
2023-01-10T20:54:56.513Z,6.40
2023-01-10T20:57:47.461Z,6.30
2023-01-10T21:00:37.055Z,6.40
2023-01-10T21:03:26.137Z,6.20
2023-01-10T21:06:16.483Z,6.10
2023-01-10T21:09:08.789Z,6.10
2023-01-10T21:12:10.659Z,6.10
2023-01-10T21:15:17.426Z,6.10
2023-01-10T21:18:07.116Z,6.00
2023-01-10T21:20:57.899Z,5.80
2023-01-10T21:23:46.751Z,5.70
2023-01-10T21:26:35.583Z,5.70
2023-01-10T21:29:24.422Z,5.90
2023-01-10T21:32:14.615Z,5.70
2023-01-10T21:35:03.460Z,5.90
2023-01-10T21:37:52.244Z,5.80
2023-01-10T21:40:41.118Z,5.60
2023-01-10T21:43:32.164Z,5.60
2023-01-10T21:46:20.949Z,5.70
2023-01-10T21:49:11.229Z,5.70
2023-01-10T21:52:00.107Z,5.70
2023-01-10T21:54:48.805Z,5.50
2023-01-10T21:57:39.498Z,5.60
2023-01-10T22:00:28.336Z,5.50
2023-01-10T22:03:17.095Z,5.60
2023-01-10T22:06:07.886Z,5.40
2023-01-10T22:08:56.758Z,5.60
2023-01-10T22:11:46.209Z,5.50
2023-01-10T22:14:35.167Z,5.40
2023-01-10T22:17:24.095Z,5.30
2023-01-10T22:20:14.361Z,5.40
2023-01-10T22:23:04.722Z,5.30
2023-01-10T22:26:00.405Z,5.30
2023-01-10T22:28:49.302Z,5.30
2023-01-10T22:31:38.199Z,5.30
2023-01-10T22:34:27.028Z,5.40
2023-01-10T22:37:17.232Z,5.50
2023-01-10T22:40:08.822Z,5.50
2023-01-10T22:42:57.656Z,5.50
2023-01-10T22:45:46.451Z,5.50
2023-01-10T22:48:36.862Z,5.50
2023-01-10T22:51:27.783Z,5.50
2023-01-10T22:54:16.843Z,5.30
2023-01-10T22:57:10.065Z,5.40
2023-01-10T22:59:58.927Z,5.20
2023-01-10T23:02:48.294Z,5.20
2023-01-10T23:05:37.062Z,5.30
2023-01-10T23:08:29.334Z,5.20
2023-01-10T23:11:20.336Z,5.30
2023-01-10T23:14:10.514Z,5.20
2023-01-10T23:16:59.470Z,5.40
2023-01-10T23:19:48.526Z,5.60
2023-01-10T23:22:37.261Z,5.50
2023-01-10T23:25:26.135Z,5.50
2023-01-10T23:28:14.882Z,5.50
2023-01-10T23:31:05.604Z,5.30
2023-01-10T23:33:54.760Z,5.40
2023-01-10T23:36:43.792Z,5.40
2023-01-10T23:39:32.591Z,5.40
2023-01-10T23:42:21.362Z,5.50
2023-01-10T23:45:11.210Z,5.60
2023-01-10T23:48:02.156Z,5.50
2023-01-10T23:50:51.740Z,5.50
2023-01-10T23:53:40.653Z,5.40
2023-01-10T23:56:29.661Z,5.50
2023-01-10T23:59:18.894Z,5.60
